Terminal Aerodrome Forecast
Issued by NWS

Home | Current Version | Previous Version | Text Only | Print | Product List | Glossary On
Versions: 1 2 3 4 5 6 7 8 9 10 11 12 13 14
000
FTUS45 KREV 082346
TAFMMH
TAF
KMMH 082346Z 0900/0924 28018G28KT P6SM VCSH SCT040 BKN060
     FM090600 24010KT P6SM SCT050 BKN080
     FM092200 21015G25KT P6SM BKN050 BKN080 WS020/25050KT=

USA.gov is the U.S. government's official web portal to all federal, state and local government web resources and services.